Blackey, Kentucky
Current Conditions -  °F | °C
As of 12:35 AM on Thursday 23 Oct 2014 (Local Time) from KLNP Reporting Station
Overcast Overcast  
Wind Chill: 37°   Ceiling: 800
Heat Index: 43°   Visibility: 10mi
Dew Point: 43°   Wind: 9mph
Humidity: 100%   Direction: 350°N
Pressure: 30.2"   Gusts: NA
Location:  37.14°N, 82.98°W
Report Text: KLNP 230435Z AUTO 35008KT 10SM BKN008 OVC014 06/06 A3020 RMK AO2
Loading
Personal Weather Stations






























Interactive Weather Map
Tropical Storm Tracking
New forecast layout! Learn more

10-Day Weather Forecast

Advertisements
Track Severe Weather on mobile